createdAt,value
2018-02-24T00:00:41.468Z,-0.93
2018-02-24T00:01:41.450Z,-0.91
2018-02-24T00:02:41.449Z,-0.94
2018-02-24T00:03:41.497Z,-0.94
2018-02-24T00:04:41.652Z,-0.94
2018-02-24T00:05:41.445Z,-0.91
2018-02-24T00:06:41.464Z,-0.94
2018-02-24T00:07:41.460Z,-0.94
2018-02-24T00:08:41.614Z,-0.94
2018-02-24T00:09:41.661Z,-0.95
2018-02-24T00:10:41.627Z,-0.96
2018-02-24T00:11:41.693Z,-0.94
2018-02-24T00:12:41.633Z,-0.96
2018-02-24T00:13:41.630Z,-1
2018-02-24T00:14:41.901Z,-0.99
2018-02-24T00:15:41.638Z,-1.04
2018-02-24T00:16:41.651Z,-1.02
2018-02-24T00:17:41.628Z,-1.04
2018-02-24T00:18:41.641Z,-1.02
2018-02-24T00:19:41.643Z,-1.02
2018-02-24T00:20:41.954Z,-1.06
2018-02-24T00:21:41.493Z,-1.04
2018-02-24T00:22:41.477Z,-1.02
2018-02-24T00:23:41.498Z,-1.05
2018-02-24T00:24:41.512Z,-1.02
2018-02-24T00:25:41.526Z,-1.04
2018-02-24T00:26:41.685Z,-1.02
2018-02-24T00:27:41.704Z,-1.02
2018-02-24T00:28:41.521Z,-1.03
2018-02-24T00:29:41.533Z,-1.06
2018-02-24T00:30:41.674Z,-1.07
2018-02-24T00:31:41.770Z,-1.11
2018-02-24T00:32:41.693Z,-1.09
2018-02-24T00:33:41.716Z,-1.12
2018-02-24T00:34:41.713Z,-1.11
2018-02-24T00:35:41.706Z,-1.14
2018-02-24T00:36:42.016Z,-1.09
2018-02-24T00:37:41.712Z,-1.12
2018-02-24T00:38:41.545Z,-1.13
2018-02-24T00:39:41.738Z,-1.13
2018-02-24T00:40:41.581Z,-1.14
2018-02-24T00:41:41.597Z,-1.14
2018-02-24T00:42:41.566Z,-1.14
2018-02-24T00:43:41.578Z,-1.15
2018-02-24T00:44:41.584Z,-1.18
2018-02-24T00:45:41.604Z,-1.17
2018-02-24T00:46:41.613Z,-1.16
2018-02-24T00:47:41.601Z,-1.19
2018-02-24T00:48:41.594Z,-1.19
2018-02-24T00:49:41.600Z,-1.16
2018-02-24T00:50:41.610Z,-1.17
2018-02-24T00:51:41.604Z,-1.13
2018-02-24T00:52:41.603Z,-1.13
2018-02-24T00:53:41.620Z,-1.16
2018-02-24T00:54:41.633Z,-1.19
2018-02-24T00:55:41.618Z,-1.17
2018-02-24T00:56:41.629Z,-1.19
2018-02-24T00:57:41.639Z,-1.2
2018-02-24T00:58:41.649Z,-1.2
2018-02-24T00:59:41.615Z,-1.2
2018-02-24T01:00:41.624Z,-1.22
2018-02-24T01:01:41.637Z,-1.22
2018-02-24T01:02:41.618Z,-1.24
2018-02-24T01:03:41.626Z,-1.21
2018-02-24T01:04:41.637Z,-1.24
2018-02-24T01:05:41.637Z,-1.26
2018-02-24T01:06:41.652Z,-1.24
2018-02-24T01:07:41.692Z,-1.25
2018-02-24T01:08:41.660Z,-1.28
2018-02-24T01:09:41.670Z,-1.26
2018-02-24T01:10:41.653Z,-1.28
2018-02-24T01:11:41.735Z,-1.32
2018-02-24T01:12:41.665Z,-1.32
2018-02-24T01:13:41.664Z,-1.32
2018-02-24T01:14:41.673Z,-1.36
2018-02-24T01:15:41.850Z,-1.35
2018-02-24T01:16:41.828Z,-1.36
2018-02-24T01:17:41.849Z,-1.37
2018-02-24T01:18:41.878Z,-1.38
2018-02-24T01:19:41.861Z,-1.38
2018-02-24T01:20:41.956Z,-1.38
2018-02-24T01:21:41.710Z,-1.37
2018-02-24T01:22:41.871Z,-1.41
2018-02-24T01:23:41.873Z,-1.42
2018-02-24T01:24:41.870Z,-1.4
2018-02-24T01:25:41.892Z,-1.41
2018-02-24T01:26:41.882Z,-1.4
2018-02-24T01:27:41.735Z,-1.4
2018-02-24T01:28:41.735Z,-1.41
2018-02-24T01:29:41.940Z,-1.4
2018-02-24T01:30:41.774Z,-1.41
2018-02-24T01:31:41.916Z,-1.42
2018-02-24T01:32:41.753Z,-1.44
2018-02-24T01:33:41.769Z,-1.44
2018-02-24T01:34:41.756Z,-1.45
2018-02-24T01:35:42.150Z,-1.45
2018-02-24T01:36:41.766Z,-1.45
2018-02-24T01:37:41.764Z,-1.45
2018-02-24T01:38:41.759Z,-1.46
2018-02-24T01:39:41.753Z,-1.47
2018-02-24T01:40:42.070Z,-1.45
2018-02-24T01:41:41.777Z,-1.48
2018-02-24T01:42:41.767Z,-1.48
2018-02-24T01:43:41.791Z,-1.45
2018-02-24T01:44:41.794Z,-1.47
2018-02-24T01:45:41.819Z,-1.46
2018-02-24T01:46:41.829Z,-1.47
2018-02-24T01:47:41.952Z,-1.48
2018-02-24T01:48:41.946Z,-1.48
2018-02-24T01:49:41.970Z,-1.47
2018-02-24T01:50:41.991Z,-1.5
2018-02-24T01:51:41.809Z,-1.5
2018-02-24T01:52:41.799Z,-1.5
2018-02-24T01:53:41.799Z,-1.5
2018-02-24T01:54:41.816Z,-1.51
2018-02-24T01:55:41.853Z,-1.48
2018-02-24T01:56:41.825Z,-1.44
2018-02-24T01:57:41.843Z,-1.48
2018-02-24T01:58:41.838Z,-1.45
2018-02-24T01:59:41.827Z,-1.46
2018-02-24T02:00:41.839Z,-1.48
2018-02-24T02:01:42.268Z,-1.47
2018-02-24T02:02:41.859Z,-1.51
2018-02-24T02:03:41.863Z,-1.55
2018-02-24T02:04:41.862Z,-1.54
2018-02-24T02:05:41.889Z,-1.52
2018-02-24T02:06:41.887Z,-1.56
2018-02-24T02:07:41.871Z,-1.57
2018-02-24T02:08:41.868Z,-1.55
2018-02-24T02:09:41.882Z,-1.56
2018-02-24T02:10:41.882Z,-1.57
2018-02-24T02:11:41.903Z,-1.58
2018-02-24T02:12:41.868Z,-1.6
2018-02-24T02:13:41.939Z,-1.59
2018-02-24T02:14:41.872Z,-1.62
2018-02-24T02:15:41.887Z,-1.59
2018-02-24T02:16:41.992Z,-1.63
2018-02-24T02:17:41.955Z,-1.63
2018-02-24T02:18:41.901Z,-1.61
2018-02-24T02:19:41.900Z,-1.64
2018-02-24T02:20:41.901Z,-1.65
2018-02-24T02:21:41.901Z,-1.68
2018-02-24T02:22:41.902Z,-1.69
2018-02-24T02:23:41.940Z,-1.73
2018-02-24T02:24:41.909Z,-1.75
2018-02-24T02:25:41.913Z,-1.74
2018-02-24T02:26:42.076Z,-1.74
2018-02-24T02:27:42.102Z,-1.74
2018-02-24T02:28:42.073Z,-1.74
2018-02-24T02:29:41.908Z,-1.75
2018-02-24T02:30:42.086Z,-1.76
2018-02-24T02:31:42.076Z,-1.76
2018-02-24T02:32:42.100Z,-1.75
2018-02-24T02:33:42.094Z,-1.74
2018-02-24T02:34:42.145Z,-1.75
2018-02-24T02:35:42.096Z,-1.77
2018-02-24T02:36:41.970Z,-1.8
2018-02-24T02:37:41.952Z,-1.8
2018-02-24T02:38:42.135Z,-1.82
2018-02-24T02:39:42.118Z,-1.82
2018-02-24T02:40:41.965Z,-1.84
2018-02-24T02:41:41.998Z,-1.84
2018-02-24T02:42:42.004Z,-1.86
2018-02-24T02:43:41.998Z,-1.87
2018-02-24T02:44:41.990Z,-1.84
2018-02-24T02:45:41.998Z,-1.88
2018-02-24T02:46:42.018Z,-1.88
2018-02-24T02:47:41.989Z,-1.92
2018-02-24T02:48:42.000Z,-1.92
2018-02-24T02:49:42.039Z,-1.93
2018-02-24T02:50:42.068Z,-1.93
2018-02-24T02:51:41.994Z,-1.97
2018-02-24T02:52:41.999Z,-1.93
2018-02-24T02:53:42.017Z,-1.94
2018-02-24T02:54:42.009Z,-1.95
2018-02-24T02:55:42.005Z,-1.94
2018-02-24T02:56:42.181Z,-1.95
2018-02-24T02:57:42.201Z,-1.96
2018-02-24T02:58:42.203Z,-2
2018-02-24T02:59:42.011Z,-1.98
2018-02-24T03:00:42.186Z,-2.01
2018-02-24T03:01:42.171Z,-2.01
2018-02-24T03:02:42.013Z,-2.05
2018-02-24T03:03:42.033Z,-2.04
2018-02-24T03:04:42.041Z,-2.06
2018-02-24T03:05:42.044Z,-2.05
2018-02-24T03:06:42.021Z,-2.05
2018-02-24T03:07:42.032Z,-2.06
2018-02-24T03:08:42.044Z,-2.05
2018-02-24T03:09:42.048Z,-2.06
2018-02-24T03:10:42.026Z,-2.05
2018-02-24T03:11:42.043Z,-2.06
2018-02-24T03:12:42.039Z,-2.06
2018-02-24T03:13:42.412Z,-2.07
2018-02-24T03:14:42.044Z,-2.07
2018-02-24T03:15:42.050Z,-2.08
2018-02-24T03:16:42.057Z,-2.1
2018-02-24T03:17:42.051Z,-2.1
2018-02-24T03:18:42.079Z,-2.13
2018-02-24T03:19:42.056Z,-2.13
2018-02-24T03:20:42.060Z,-2.13
2018-02-24T03:21:42.069Z,-2.15
2018-02-24T03:22:42.074Z,-2.14
2018-02-24T03:23:42.061Z,-2.18
2018-02-24T03:24:42.075Z,-2.18
2018-02-24T03:25:42.061Z,-2.18
2018-02-24T03:26:42.071Z,-2.18
2018-02-24T03:27:42.081Z,-2.18
2018-02-24T03:28:42.080Z,-2.23
2018-02-24T03:29:42.104Z,-2.21
2018-02-24T03:30:42.114Z,-2.23
2018-02-24T03:31:42.121Z,-2.21
2018-02-24T03:32:42.087Z,-2.25
2018-02-24T03:33:42.100Z,-2.26
2018-02-24T03:34:42.096Z,-2.3
2018-02-24T03:35:42.109Z,-2.29
2018-02-24T03:36:42.103Z,-2.28
2018-02-24T03:37:42.116Z,-2.32
2018-02-24T03:38:42.285Z,-2.32
2018-02-24T03:39:42.276Z,-2.3
2018-02-24T03:40:42.266Z,-2.31
2018-02-24T03:41:42.283Z,-2.32
2018-02-24T03:42:42.279Z,-2.33
2018-02-24T03:43:42.341Z,-2.35
2018-02-24T03:44:42.158Z,-2.33
2018-02-24T03:45:42.298Z,-2.36
2018-02-24T03:46:42.294Z,-2.38
2018-02-24T03:47:42.296Z,-2.43
2018-02-24T03:48:42.322Z,-2.38
2018-02-24T03:49:42.163Z,-2.41
2018-02-24T03:50:42.309Z,-2.39
2018-02-24T03:51:42.325Z,-2.37
2018-02-24T03:52:42.323Z,-2.39
2018-02-24T03:53:42.314Z,-2.4
2018-02-24T03:54:42.322Z,-2.41
2018-02-24T03:55:42.330Z,-2.42
2018-02-24T03:56:42.343Z,-2.39
2018-02-24T03:57:42.322Z,-2.39
2018-02-24T03:58:42.369Z,-2.38
2018-02-24T03:59:42.196Z,-2.43
2018-02-24T04:00:42.338Z,-2.46
2018-02-24T04:01:42.198Z,-2.43
2018-02-24T04:02:42.332Z,-2.42
2018-02-24T04:03:42.200Z,-2.43
2018-02-24T04:04:42.350Z,-2.46
2018-02-24T04:05:42.352Z,-2.49
2018-02-24T04:06:42.354Z,-2.49
2018-02-24T04:07:42.355Z,-2.5
2018-02-24T04:08:42.375Z,-2.51
2018-02-24T04:09:42.211Z,-2.49
2018-02-24T04:10:42.387Z,-2.5
2018-02-24T04:11:42.384Z,-2.52
2018-02-24T04:12:42.403Z,-2.55
2018-02-24T04:13:42.454Z,-2.57
2018-02-24T04:14:42.222Z,-2.58
2018-02-24T04:15:42.238Z,-2.62
2018-02-24T04:16:42.212Z,-2.6
2018-02-24T04:17:42.236Z,-2.6
2018-02-24T04:18:42.259Z,-2.58
2018-02-24T04:19:42.248Z,-2.61
2018-02-24T04:20:42.242Z,-2.61
2018-02-24T04:21:42.247Z,-2.61
2018-02-24T04:22:42.254Z,-2.56
2018-02-24T04:23:42.411Z,-2.55
2018-02-24T04:24:42.249Z,-2.53
2018-02-24T04:25:42.245Z,-2.55
2018-02-24T04:26:42.274Z,-2.57
2018-02-24T04:27:42.240Z,-2.58
2018-02-24T04:28:42.398Z,-2.61
2018-02-24T04:29:42.295Z,-2.62
2018-02-24T04:30:42.275Z,-2.62
2018-02-24T04:31:42.251Z,-2.67
2018-02-24T04:32:42.259Z,-2.67
2018-02-24T04:33:42.261Z,-2.69
2018-02-24T04:34:42.283Z,-2.68
2018-02-24T04:35:42.270Z,-2.7
2018-02-24T04:36:42.260Z,-2.69
2018-02-24T04:37:42.279Z,-2.67
2018-02-24T04:38:42.274Z,-2.68
2018-02-24T04:39:42.304Z,-2.69
2018-02-24T04:40:42.320Z,-2.72
2018-02-24T04:41:42.277Z,-2.69
2018-02-24T04:42:42.285Z,-2.75
2018-02-24T04:43:42.288Z,-2.7
2018-02-24T04:44:42.306Z,-2.72
2018-02-24T04:45:42.287Z,-2.73
2018-02-24T04:46:42.364Z,-2.71
2018-02-24T04:47:42.299Z,-2.74
2018-02-24T04:48:42.308Z,-2.73
2018-02-24T04:49:42.753Z,-2.76
2018-02-24T04:50:42.477Z,-2.78
2018-02-24T04:51:42.460Z,-2.79
2018-02-24T04:52:42.472Z,-2.79
2018-02-24T04:53:42.536Z,-2.76
2018-02-24T04:54:42.481Z,-2.81
2018-02-24T04:55:42.485Z,-2.82
2018-02-24T04:56:42.463Z,-2.85
2018-02-24T04:57:42.322Z,-2.85
2018-02-24T04:58:42.321Z,-2.88
2018-02-24T04:59:42.339Z,-2.88
2018-02-24T05:00:42.551Z,-2.87
2018-02-24T05:01:42.487Z,-2.88
2018-02-24T05:02:42.714Z,-2.91
2018-02-24T05:03:42.627Z,-2.9
2018-02-24T05:04:42.520Z,-2.93
2018-02-24T05:05:42.504Z,-2.92
2018-02-24T05:06:42.495Z,-2.94
2018-02-24T05:07:42.520Z,-2.93
2018-02-24T05:08:42.612Z,-2.98
2018-02-24T05:09:42.356Z,-2.95
2018-02-24T05:10:42.353Z,-2.97
2018-02-24T05:11:42.405Z,-2.98
2018-02-24T05:12:42.403Z,-2.99
2018-02-24T05:13:42.402Z,-2.98
2018-02-24T05:14:42.413Z,-2.99
2018-02-24T05:15:42.470Z,-3.01
2018-02-24T05:16:42.379Z,-3.03
2018-02-24T05:17:42.624Z,-3.05
2018-02-24T05:18:42.390Z,-2.99
2018-02-24T05:19:42.377Z,-2.98
2018-02-24T05:20:42.408Z,-3.06
2018-02-24T05:21:42.392Z,-3.06
2018-02-24T05:22:42.432Z,-3.07
2018-02-24T05:23:42.395Z,-3.07
2018-02-24T05:24:42.406Z,-3.1
2018-02-24T05:25:42.423Z,-3.09
2018-02-24T05:26:42.410Z,-3.1
2018-02-24T05:27:42.422Z,-3.1
2018-02-24T05:28:42.432Z,-3.1
2018-02-24T05:29:42.409Z,-3.06
2018-02-24T05:30:42.458Z,-3.08
2018-02-24T05:31:42.804Z,-3.1
2018-02-24T05:32:42.691Z,-3.06
2018-02-24T05:33:42.426Z,-3.08
2018-02-24T05:34:42.426Z,-3.1
2018-02-24T05:35:42.417Z,-3.09
2018-02-24T05:36:42.427Z,-3.12
2018-02-24T05:37:42.464Z,-3.17
2018-02-24T05:38:42.437Z,-3.17
2018-02-24T05:39:42.477Z,-3.14
2018-02-24T05:40:42.434Z,-3.17
2018-02-24T05:41:42.435Z,-3.17
2018-02-24T05:42:42.437Z,-3.16
2018-02-24T05:43:42.452Z,-3.16
2018-02-24T05:44:42.457Z,-3.17
2018-02-24T05:45:42.466Z,-3.16
2018-02-24T05:46:42.449Z,-3.2
2018-02-24T05:47:42.455Z,-3.18
2018-02-24T05:48:42.467Z,-3.19
2018-02-24T05:49:42.443Z,-3.19
2018-02-24T05:50:42.473Z,-3.22
2018-02-24T05:51:42.504Z,-3.21
2018-02-24T05:52:42.463Z,-3.22
2018-02-24T05:53:42.487Z,-3.2
2018-02-24T05:54:42.490Z,-3.24
2018-02-24T05:55:42.492Z,-3.27
2018-02-24T05:56:42.557Z,-3.27
2018-02-24T05:57:42.484Z,-3.24
2018-02-24T05:58:42.533Z,-3.24
2018-02-24T05:59:42.546Z,-3.24
2018-02-24T06:00:42.496Z,-3.22
2018-02-24T06:01:42.697Z,-3.25
2018-02-24T06:02:42.691Z,-3.24
2018-02-24T06:03:42.673Z,-3.25
2018-02-24T06:04:42.678Z,-3.26
2018-02-24T06:05:42.678Z,-3.25
2018-02-24T06:06:42.699Z,-3.27
2018-02-24T06:07:42.706Z,-3.29
2018-02-24T06:08:42.729Z,-3.28
2018-02-24T06:09:42.728Z,-3.25
2018-02-24T06:10:42.721Z,-3.26
2018-02-24T06:11:42.722Z,-3.25
2018-02-24T06:12:42.718Z,-3.26
2018-02-24T06:13:42.734Z,-3.29
2018-02-24T06:14:42.778Z,-3.33
2018-02-24T06:15:42.721Z,-3.3
2018-02-24T06:16:42.850Z,-3.31
2018-02-24T06:17:42.777Z,-3.29
2018-02-24T06:18:42.719Z,-3.31
2018-02-24T06:19:42.767Z,-3.32
2018-02-24T06:20:42.738Z,-3.32
2018-02-24T06:21:42.606Z,-3.32
2018-02-24T06:22:42.748Z,-3.33
2018-02-24T06:23:42.751Z,-3.39
2018-02-24T06:24:42.757Z,-3.38
2018-02-24T06:25:42.753Z,-3.36
2018-02-24T06:26:42.761Z,-3.39
2018-02-24T06:27:42.816Z,-3.38
2018-02-24T06:28:42.743Z,-3.4
2018-02-24T06:29:42.606Z,-3.4
2018-02-24T06:30:42.613Z,-3.39
2018-02-24T06:31:42.771Z,-3.39
2018-02-24T06:32:42.779Z,-3.39
2018-02-24T06:33:42.765Z,-3.39
2018-02-24T06:34:42.768Z,-3.39
2018-02-24T06:35:42.814Z,-3.41
2018-02-24T06:36:42.788Z,-3.43
2018-02-24T06:37:42.630Z,-3.42
2018-02-24T06:38:42.647Z,-3.39
2018-02-24T06:39:42.813Z,-3.4
2018-02-24T06:40:42.651Z,-3.41
2018-02-24T06:41:42.673Z,-3.38
2018-02-24T06:42:42.696Z,-3.39
2018-02-24T06:43:42.673Z,-3.4
2018-02-24T06:44:42.688Z,-3.42
2018-02-24T06:45:42.743Z,-3.4
2018-02-24T06:46:42.721Z,-3.38
2018-02-24T06:47:42.691Z,-3.39
2018-02-24T06:48:42.967Z,-3.37
2018-02-24T06:49:42.725Z,-3.37
2018-02-24T06:50:42.701Z,-3.36
2018-02-24T06:51:42.716Z,-3.36
2018-02-24T06:52:42.756Z,-3.33
2018-02-24T06:53:42.719Z,-3.36
2018-02-24T06:54:43.152Z,-3.37
2018-02-24T06:55:42.871Z,-3.37
2018-02-24T06:56:42.723Z,-3.37
2018-02-24T06:57:42.720Z,-3.37
2018-02-24T06:58:42.737Z,-3.36
2018-02-24T06:59:42.740Z,-3.35
2018-02-24T07:00:43.065Z,-3.32
2018-02-24T07:01:42.741Z,-3.29
2018-02-24T07:02:42.767Z,-3.28
2018-02-24T07:03:42.770Z,-3.29
2018-02-24T07:04:42.778Z,-3.3
2018-02-24T07:05:42.759Z,-3.29
2018-02-24T07:06:42.786Z,-3.27
2018-02-24T07:07:42.750Z,-3.25
2018-02-24T07:08:42.799Z,-3.25
2018-02-24T07:09:42.785Z,-3.25
2018-02-24T07:10:42.799Z,-3.24
2018-02-24T07:11:42.768Z,-3.22
2018-02-24T07:12:42.784Z,-3.19
2018-02-24T07:13:43.094Z,-3.19
2018-02-24T07:14:42.944Z,-3.18
2018-02-24T07:15:42.938Z,-3.17
2018-02-24T07:16:42.959Z,-3.17
2018-02-24T07:17:42.946Z,-3.15
2018-02-24T07:18:42.971Z,-3.11
2018-02-24T07:19:43.025Z,-3.12
2018-02-24T07:20:42.961Z,-3.12
2018-02-24T07:21:42.975Z,-3.09
2018-02-24T07:22:43.040Z,-3.07
2018-02-24T07:23:42.972Z,-3.04
2018-02-24T07:24:42.848Z,-3.01
2018-02-24T07:25:42.817Z,-3.01
2018-02-24T07:26:43.043Z,-3
2018-02-24T07:27:43.017Z,-2.98
2018-02-24T07:28:42.838Z,-2.96
2018-02-24T07:29:42.987Z,-2.97
2018-02-24T07:30:42.842Z,-2.98
2018-02-24T07:31:42.857Z,-2.97
2018-02-24T07:32:42.864Z,-2.95
2018-02-24T07:33:42.931Z,-2.91
2018-02-24T07:34:42.861Z,-2.89
2018-02-24T07:35:42.884Z,-2.86
2018-02-24T07:36:42.893Z,-2.84
2018-02-24T07:37:42.935Z,-2.82
2018-02-24T07:38:42.878Z,-2.81
2018-02-24T07:39:42.870Z,-2.8
2018-02-24T07:40:42.863Z,-2.79
2018-02-24T07:41:42.867Z,-2.76
2018-02-24T07:42:42.914Z,-2.74
2018-02-24T07:43:42.859Z,-2.7
2018-02-24T07:44:43.088Z,-2.67
2018-02-24T07:45:42.917Z,-2.68
2018-02-24T07:46:43.047Z,-2.67
2018-02-24T07:47:43.036Z,-2.63
2018-02-24T07:48:42.893Z,-2.6
2018-02-24T07:49:42.887Z,-2.61
2018-02-24T07:50:42.884Z,-2.59
2018-02-24T07:51:42.911Z,-2.6
2018-02-24T07:52:42.898Z,-2.59
2018-02-24T07:53:42.910Z,-2.57
2018-02-24T07:54:42.913Z,-2.55
2018-02-24T07:55:43.182Z,-2.53
2018-02-24T07:56:42.898Z,-2.51
2018-02-24T07:57:42.912Z,-2.51
2018-02-24T07:58:42.925Z,-2.52
2018-02-24T07:59:42.934Z,-2.49
2018-02-24T08:00:42.943Z,-2.48
2018-02-24T08:01:42.923Z,-2.48
2018-02-24T08:02:42.988Z,-2.44
2018-02-24T08:03:42.939Z,-2.38
2018-02-24T08:04:43.343Z,-2.35
2018-02-24T08:05:42.983Z,-2.36
2018-02-24T08:06:42.953Z,-2.36
2018-02-24T08:07:42.967Z,-2.33
2018-02-24T08:08:42.980Z,-2.28
2018-02-24T08:09:42.976Z,-2.26
2018-02-24T08:10:42.986Z,-2.28
2018-02-24T08:11:42.981Z,-2.26
2018-02-24T08:12:42.999Z,-2.26
2018-02-24T08:13:43.018Z,-2.24
2018-02-24T08:14:42.986Z,-2.24
2018-02-24T08:15:43.018Z,-2.19
2018-02-24T08:16:43.016Z,-2.18
2018-02-24T08:17:43.158Z,-2.13
2018-02-24T08:18:43.011Z,-2.11
2018-02-24T08:19:43.019Z,-2.08
2018-02-24T08:20:43.020Z,-2.05
2018-02-24T08:21:43.029Z,-2.04
2018-02-24T08:22:43.016Z,-2.08
2018-02-24T08:23:43.039Z,-2.07
2018-02-24T08:24:43.024Z,-2.05
2018-02-24T08:25:43.165Z,-2.05
2018-02-24T08:26:43.057Z,-2.03
2018-02-24T08:27:43.248Z,-2
2018-02-24T08:28:43.212Z,-2
2018-02-24T08:29:43.189Z,-2.03
2018-02-24T08:30:43.248Z,-1.99
2018-02-24T08:31:43.200Z,-1.98
2018-02-24T08:32:43.224Z,-1.93
2018-02-24T08:33:43.234Z,-1.93
2018-02-24T08:34:43.229Z,-1.9
2018-02-24T08:35:43.220Z,-1.92
2018-02-24T08:36:43.215Z,-1.87
2018-02-24T08:37:43.360Z,-1.85
2018-02-24T08:38:43.345Z,-1.81
2018-02-24T08:39:43.355Z,-1.8
2018-02-24T08:40:43.386Z,-1.81
2018-02-24T08:41:43.216Z,-1.77
2018-02-24T08:42:43.277Z,-1.76
2018-02-24T08:43:43.070Z,-1.75
2018-02-24T08:44:43.064Z,-1.72
2018-02-24T08:45:43.117Z,-1.68
2018-02-24T08:46:43.107Z,-1.67
2018-02-24T08:47:43.086Z,-1.69
2018-02-24T08:48:43.093Z,-1.67
2018-02-24T08:49:43.274Z,-1.63
2018-02-24T08:50:43.176Z,-1.58
2018-02-24T08:51:43.202Z,-1.55
2018-02-24T08:52:43.217Z,-1.51
2018-02-24T08:53:43.131Z,-1.5
2018-02-24T08:54:43.120Z,-1.46
2018-02-24T08:55:43.108Z,-1.43
2018-02-24T08:56:43.146Z,-1.38
2018-02-24T08:57:43.116Z,-1.36
2018-02-24T08:58:43.123Z,-1.31
2018-02-24T08:59:43.153Z,-1.3
2018-02-24T09:00:43.137Z,-1.32
2018-02-24T09:01:43.182Z,-1.29
2018-02-24T09:02:43.144Z,-1.26
2018-02-24T09:03:43.139Z,-1.24
2018-02-24T09:04:43.134Z,-1.23
2018-02-24T09:05:43.115Z,-1.18
2018-02-24T09:06:43.341Z,-1.13
2018-02-24T09:07:43.132Z,-1.12
2018-02-24T09:08:43.160Z,-1.04
2018-02-24T09:09:43.175Z,-0.99
2018-02-24T09:10:43.138Z,-1
2018-02-24T09:11:43.206Z,-0.96
2018-02-24T09:12:43.125Z,-0.94
2018-02-24T09:13:43.135Z,-0.93
2018-02-24T09:14:43.123Z,-0.9
2018-02-24T09:15:43.234Z,-0.87
2018-02-24T09:16:43.208Z,-0.84
2018-02-24T09:17:43.808Z,-0.87
2018-02-24T09:18:43.244Z,-0.81
2018-02-24T09:19:43.390Z,-0.77
2018-02-24T09:20:43.236Z,-0.73
2018-02-24T09:21:43.272Z,-0.7
2018-02-24T09:22:43.161Z,-0.7
2018-02-24T09:23:43.142Z,-0.65
2018-02-24T09:24:43.143Z,-0.6
2018-02-24T09:25:43.172Z,-0.57
2018-02-24T09:26:43.175Z,-0.56
2018-02-24T09:27:43.168Z,-0.52
2018-02-24T09:28:43.164Z,-0.52
2018-02-24T09:29:43.224Z,-0.5
2018-02-24T09:30:43.182Z,-0.49
2018-02-24T09:31:43.194Z,-0.4
2018-02-24T09:32:43.214Z,-0.38
2018-02-24T09:33:43.253Z,-0.38
2018-02-24T09:34:43.197Z,-0.43
2018-02-24T09:35:43.197Z,-0.43
2018-02-24T09:36:43.381Z,-0.35
2018-02-24T09:37:43.388Z,-0.36
2018-02-24T09:38:43.768Z,-0.33
2018-02-24T09:39:43.387Z,-0.31
2018-02-24T09:40:43.417Z,-0.28
2018-02-24T09:41:43.418Z,-0.25
2018-02-24T09:42:43.364Z,-0.23
2018-02-24T09:43:43.443Z,-0.19
2018-02-24T09:44:43.384Z,-0.14
2018-02-24T09:45:43.384Z,-0.06
2018-02-24T09:46:43.254Z,-0.02
2018-02-24T09:47:43.384Z,-0.01
2018-02-24T09:48:43.297Z,-0.02
2018-02-24T09:49:43.396Z,0.01
2018-02-24T09:50:43.240Z,0.06
2018-02-24T09:51:43.407Z,0.07
2018-02-24T09:52:43.397Z,0.12
2018-02-24T09:53:43.232Z,0.13
2018-02-24T09:54:43.409Z,0.18
2018-02-24T09:55:43.473Z,0.21
2018-02-24T09:56:43.417Z,0.21
2018-02-24T09:57:43.418Z,0.31
2018-02-24T09:58:43.902Z,0.34
2018-02-24T09:59:43.409Z,0.4
2018-02-24T10:00:43.283Z,0.44
2018-02-24T10:01:43.422Z,0.46
2018-02-24T10:02:43.298Z,0.5
2018-02-24T10:03:43.272Z,0.54
2018-02-24T10:04:43.403Z,0.55
2018-02-24T10:05:43.416Z,0.6
2018-02-24T10:06:43.246Z,0.55
2018-02-24T10:07:43.264Z,0.63
2018-02-24T10:08:43.494Z,0.61
2018-02-24T10:09:43.259Z,0.62
2018-02-24T10:10:43.288Z,0.67
2018-02-24T10:11:43.274Z,0.68
2018-02-24T10:12:43.289Z,0.69
2018-02-24T10:13:43.277Z,0.68
2018-02-24T10:14:43.278Z,0.69
2018-02-24T10:15:43.315Z,0.75
2018-02-24T10:16:43.286Z,0.81
2018-02-24T10:17:43.367Z,0.85
2018-02-24T10:18:43.292Z,0.93
2018-02-24T10:19:43.324Z,0.95
2018-02-24T10:20:43.384Z,0.95
2018-02-24T10:21:43.315Z,0.96
2018-02-24T10:22:43.329Z,0.99
2018-02-24T10:23:43.331Z,1
2018-02-24T10:24:43.308Z,1.09
2018-02-24T10:25:43.312Z,1.13
2018-02-24T10:26:43.340Z,1.14
2018-02-24T10:27:43.330Z,1.16
2018-02-24T10:28:43.331Z,1.14
2018-02-24T10:29:43.329Z,1.16
2018-02-24T10:30:43.370Z,1.18
2018-02-24T10:31:43.354Z,1.25
2018-02-24T10:32:43.361Z,1.31
2018-02-24T10:33:43.379Z,1.36
2018-02-24T10:34:43.350Z,1.37
2018-02-24T10:35:43.344Z,1.4
2018-02-24T10:36:43.339Z,1.42
2018-02-24T10:37:43.388Z,1.36
2018-02-24T10:38:43.377Z,1.42
2018-02-24T10:39:43.356Z,1.5
2018-02-24T10:40:43.365Z,1.58
2018-02-24T10:41:43.396Z,1.61
2018-02-24T10:42:43.387Z,1.64
2018-02-24T10:43:43.400Z,1.67
2018-02-24T10:44:43.548Z,1.72
2018-02-24T10:45:43.383Z,1.73
2018-02-24T10:46:43.387Z,1.76
2018-02-24T10:47:43.551Z,1.85
2018-02-24T10:48:43.565Z,1.9
2018-02-24T10:49:43.633Z,1.91
2018-02-24T10:50:45.236Z,1.91
2018-02-24T10:51:43.440Z,1.97
2018-02-24T10:52:43.617Z,2.02
2018-02-24T10:53:43.416Z,2.05
2018-02-24T10:54:43.591Z,2.08
2018-02-24T10:55:43.442Z,2
2018-02-24T10:56:43.477Z,2.07
2018-02-24T10:57:43.685Z,2.12
2018-02-24T10:58:43.433Z,2.17
2018-02-24T10:59:43.609Z,2.23
2018-02-24T11:00:43.472Z,2.24
2018-02-24T11:01:43.452Z,2.24
2018-02-24T11:02:43.781Z,2.22
2018-02-24T11:03:43.603Z,2.28
2018-02-24T11:04:44.739Z,2.29
2018-02-24T11:05:43.547Z,2.28
2018-02-24T11:06:43.468Z,2.35
2018-02-24T11:07:43.493Z,2.4
2018-02-24T11:08:43.762Z,2.45
2018-02-24T11:09:43.635Z,2.47
2018-02-24T11:10:43.479Z,2.48
2018-02-24T11:11:43.670Z,2.47
2018-02-24T11:12:45.177Z,2.52
2018-02-24T11:13:43.511Z,2.58
2018-02-24T11:14:43.658Z,2.6
2018-02-24T11:15:43.527Z,2.66
2018-02-24T11:16:43.590Z,2.72
2018-02-24T11:17:43.880Z,2.78
2018-02-24T11:18:43.522Z,2.86
2018-02-24T11:19:43.955Z,2.91
2018-02-24T11:20:43.578Z,2.9
2018-02-24T11:21:43.553Z,2.94
2018-02-24T11:22:43.539Z,2.96
2018-02-24T11:23:43.553Z,2.97
2018-02-24T11:24:43.576Z,2.95
2018-02-24T11:25:43.534Z,2.99
2018-02-24T11:26:43.602Z,3.02
2018-02-24T11:27:43.763Z,3.07
2018-02-24T11:28:43.542Z,3.12
2018-02-24T11:29:43.571Z,3.13
2018-02-24T11:30:43.563Z,3.15
2018-02-24T11:31:43.554Z,3.19
2018-02-24T11:32:43.622Z,3.24
2018-02-24T11:33:43.618Z,3.16
2018-02-24T11:34:43.546Z,3.18
2018-02-24T11:35:43.579Z,3.23
2018-02-24T11:36:43.626Z,3.23
2018-02-24T11:37:43.576Z,3.33
2018-02-24T11:38:43.584Z,3.37
2018-02-24T11:39:43.592Z,3.4
2018-02-24T11:40:43.597Z,3.37
2018-02-24T11:41:43.582Z,3.27
2018-02-24T11:42:43.626Z,3.28
2018-02-24T11:43:43.599Z,3.23
2018-02-24T11:44:43.597Z,3.29
2018-02-24T11:45:43.615Z,3.31
2018-02-24T11:46:43.598Z,3.37
2018-02-24T11:47:43.687Z,3.44
2018-02-24T11:48:43.754Z,3.41
2018-02-24T11:49:43.597Z,3.41
2018-02-24T11:50:43.607Z,3.45
2018-02-24T11:51:43.610Z,3.41
2018-02-24T11:52:43.641Z,3.49
2018-02-24T11:53:43.614Z,3.52
2018-02-24T11:54:43.636Z,3.57
2018-02-24T11:55:43.624Z,3.66
2018-02-24T11:56:43.874Z,3.68
2018-02-24T11:57:43.674Z,3.73
2018-02-24T11:58:43.641Z,3.76
2018-02-24T11:59:43.647Z,3.82
2018-02-24T12:00:43.667Z,3.86
2018-02-24T12:01:43.817Z,3.86
2018-02-24T12:02:43.829Z,3.84
2018-02-24T12:03:43.805Z,3.8
2018-02-24T12:04:43.854Z,3.81
2018-02-24T12:05:43.655Z,3.82
2018-02-24T12:06:43.824Z,3.81
2018-02-24T12:07:43.802Z,3.74
2018-02-24T12:08:43.666Z,3.78
2018-02-24T12:09:43.856Z,3.81
2018-02-24T12:10:43.703Z,3.84
2018-02-24T12:11:43.658Z,3.81
2018-02-24T12:12:43.680Z,3.84
2018-02-24T12:13:44.032Z,3.9
2018-02-24T12:14:43.699Z,3.96
2018-02-24T12:15:43.832Z,3.98
2018-02-24T12:16:43.678Z,3.97
2018-02-24T12:17:43.807Z,3.99
2018-02-24T12:18:43.663Z,4.12
2018-02-24T12:19:43.827Z,4.21
2018-02-24T12:20:43.704Z,4.24
2018-02-24T12:21:43.679Z,4.25
2018-02-24T12:22:43.697Z,4.31
2018-02-24T12:23:43.677Z,4.29
2018-02-24T12:24:43.850Z,4.33
2018-02-24T12:25:43.875Z,4.4
2018-02-24T12:26:43.705Z,4.44
2018-02-24T12:27:43.707Z,4.48
2018-02-24T12:28:43.870Z,4.43
2018-02-24T12:29:43.730Z,4.37
2018-02-24T12:30:43.742Z,4.42
2018-02-24T12:31:43.709Z,4.46
2018-02-24T12:32:43.769Z,4.47
2018-02-24T12:33:43.739Z,4.48
2018-02-24T12:34:43.883Z,4.53
2018-02-24T12:35:43.927Z,4.57
2018-02-24T12:36:43.748Z,4.5
2018-02-24T12:37:43.767Z,4.4
2018-02-24T12:38:43.735Z,4.44
2018-02-24T12:39:43.863Z,4.52
2018-02-24T12:40:43.838Z,4.5
2018-02-24T12:41:43.945Z,4.56
2018-02-24T12:42:43.744Z,4.48
2018-02-24T12:43:43.764Z,4.5
2018-02-24T12:44:43.759Z,4.53
2018-02-24T12:45:44.129Z,4.57
2018-02-24T12:46:44.729Z,4.62
2018-02-24T12:47:43.777Z,4.68
2018-02-24T12:48:43.771Z,4.73
2018-02-24T12:49:43.761Z,4.73
2018-02-24T12:50:44.062Z,4.8
2018-02-24T12:51:43.796Z,4.81
2018-02-24T12:52:43.802Z,4.87
2018-02-24T12:53:43.792Z,4.88
2018-02-24T12:54:43.799Z,4.87
2018-02-24T12:55:44.345Z,4.92
2018-02-24T12:56:43.826Z,4.92
2018-02-24T12:57:44.007Z,4.93
2018-02-24T12:58:43.837Z,4.93
2018-02-24T12:59:43.868Z,4.99
2018-02-24T13:00:43.991Z,5.02
2018-02-24T13:01:43.843Z,5.06
2018-02-24T13:02:43.839Z,5.1